Aviation WX

[Source: ADDS]
METAR
KDUJ 050553Z AUTO 02004KT 8SM OVC011 09/08 A2967 RMK AO2 SLP048 60004 T00940078 10133 20089 58003 $ =
TAF
KDUJ 050520Z 0506/0606 11005KT P6SM -SHRA OVC015 FM051500 03005KT P6SM VCSH OVC025 FM052200 01007KT P6SM VCSH OVC040 FM060500 36006KT P6SM VCSH BKN010 =